Time;durP1;ratioP1;P1;durP2;ratioP2;P2;SDS_P1;SDS_P2;PMS_P1;PMS_P2;Temp;Humidity;BMP_temperature;BMP_pressure;BME280_temperature;BME280_humidity;BME280_pressure;Samples;Min_cycle;Max_cycle;Signal;HPM_P1;HPM_P2
2023/03/01 00:01:09;;;;;;;27.63;11.93;;;;;;;;;;6156662;23;20193;-89
2023/03/01 00:04:17;;;;;;;24.37;11.57;;;;;;;;;;6157998;23;20186;-93
2023/03/01 00:07:25;;;;;;;26.10;11.87;;;;;;;;;;6175607;23;20211;-90
2023/03/01 00:10:33;;;;;;;30.23;12.83;;;;;;;;;;6153339;23;20169;-92
2023/03/01 00:18:00;;;;;;;29.67;12.80;;;;;;;;;;6175733;23;20525;-93
2023/03/01 00:21:09;;;;;;;27.70;12.47;;;;;;;;;;6157426;23;20204;-91
2023/03/01 00:24:14;;;;;;;29.00;12.27;;;;;;;;;;6174176;23;20185;-92
2023/03/01 00:27:20;;;;;;;26.20;11.77;;;;;;;;;;6156989;23;20249;-92
2023/03/01 00:30:26;;;;;;;30.93;14.07;;;;;;;;;;6175081;23;20217;-90
2023/03/01 00:33:33;;;;;;;32.97;14.93;;;;;;;;;;6157430;23;20180;-92
2023/03/01 00:36:41;;;;;;;27.00;13.13;;;;;;;;;;6158093;23;20148;-92
2023/03/01 00:39:47;;;;;;;31.77;13.43;;;;;;;;;;6156714;23;20156;-91
2023/03/01 00:42:52;;;;;;;33.67;13.30;;;;;;;;;;6176516;23;20147;-91
2023/03/01 00:46:03;;;;;;;31.20;13.40;;;;;;;;;;6159021;23;20167;-92
2023/03/01 00:49:08;;;;;;;34.83;13.33;;;;;;;;;;6177330;23;20549;-91
2023/03/01 00:52:17;;;;;;;28.53;13.27;;;;;;;;;;6159371;23;20148;-93
2023/03/01 00:55:23;;;;;;;30.63;13.10;;;;;;;;;;6157718;23;20176;-91
2023/03/01 00:58:28;;;;;;;31.33;13.03;;;;;;;;;;6157971;23;20152;-92
2023/03/01 01:01:36;;;;;;;30.73;12.80;;;;;;;;;;6175338;23;20171;-90
2023/03/01 01:04:41;;;;;;;29.40;13.27;;;;;;;;;;6159819;23;20152;-93
2023/03/01 01:07:49;;;;;;;26.87;12.13;;;;;;;;;;6177082;23;20237;-91
2023/03/01 01:10:55;;;;;;;30.33;12.63;;;;;;;;;;6157836;23;20208;-92
2023/03/01 01:14:08;;;;;;;31.10;13.33;;;;;;;;;;6176676;23;20173;-90
2023/03/01 01:17:13;;;;;;;27.97;11.97;;;;;;;;;;6159795;23;20168;-90
2023/03/01 01:20:20;;;;;;;30.83;13.10;;;;;;;;;;6158378;23;20168;-91
2023/03/01 01:23:28;;;;;;;27.30;12.30;;;;;;;;;;6158487;23;20161;-90
2023/03/01 01:26:35;;;;;;;30.57;12.63;;;;;;;;;;6173148;23;20201;-90
2023/03/01 01:29:42;;;;;;;26.43;12.10;;;;;;;;;;6158400;23;20160;-92
2023/03/01 01:32:48;;;;;;;29.57;12.43;;;;;;;;;;6157888;23;20236;-91
2023/03/01 01:35:54;;;;;;;27.83;12.13;;;;;;;;;;6158591;23;20164;-91
2023/03/01 01:39:01;;;;;;;27.50;13.03;;;;;;;;;;6173777;23;20156;-93
2023/03/01 01:42:06;;;;;;;23.73;11.33;;;;;;;;;;6154031;23;20172;-88
2023/03/01 01:45:27;;;;;;;27.17;12.57;;;;;;;;;;6155723;23;20147;-89
2023/03/01 01:48:40;;;;;;;30.03;12.10;;;;;;;;;;6155785;23;20204;-91
2023/03/01 01:51:47;;;;;;;25.33;11.43;;;;;;;;;;6156175;23;20216;-90
2023/03/01 01:54:56;;;;;;;26.50;11.63;;;;;;;;;;6155377;23;20163;-92
2023/03/01 01:58:03;;;;;;;29.57;12.40;;;;;;;;;;6172601;23;20197;-93
2023/03/01 02:01:09;;;;;;;28.40;12.10;;;;;;;;;;6156246;23;20168;-90
2023/03/01 02:04:15;;;;;;;25.80;11.73;;;;;;;;;;6173855;23;20185;-91
2023/03/01 02:07:23;;;;;;;27.17;12.10;;;;;;;;;;6156236;23;20191;-90
2023/03/01 02:10:30;;;;;;;28.73;12.17;;;;;;;;;;6156402;23;20217;-90
2023/03/01 02:14:02;;;;;;;27.63;11.43;;;;;;;;;;6157883;23;20152;-90
2023/03/01 02:17:07;;;;;;;29.70;12.13;;;;;;;;;;6173599;23;20223;-90
2023/03/01 02:20:17;;;;;;;27.43;11.63;;;;;;;;;;6172896;23;20220;-92
2023/03/01 02:23:22;;;;;;;30.50;12.40;;;;;;;;;;6155703;23;20167;-90
2023/03/01 02:26:36;;;;;;;26.77;11.93;;;;;;;;;;6173311;23;20152;-89
2023/03/01 02:29:43;;;;;;;26.77;12.33;;;;;;;;;;6157678;23;20172;-91
2023/03/01 02:32:49;;;;;;;35.77;12.27;;;;;;;;;;6173477;23;20576;-92
2023/03/01 02:35:56;;;;;;;26.33;12.30;;;;;;;;;;6154266;23;20664;-90
2023/03/01 02:39:04;;;;;;;29.50;12.83;;;;;;;;;;6170735;23;20165;-90
2023/03/01 02:42:12;;;;;;;29.90;12.63;;;;;;;;;;6155684;23;20188;-89
2023/03/01 02:45:19;;;;;;;29.67;12.90;;;;;;;;;;6156190;23;20165;-90
2023/03/01 02:48:24;;;;;;;27.90;12.17;;;;;;;;;;6155708;23;20196;-92
2023/03/01 02:51:42;;;;;;;32.20;12.70;;;;;;;;;;6172499;23;20222;-91
2023/03/01 02:54:49;;;;;;;33.47;13.30;;;;;;;;;;6153668;23;20628;-89
2023/03/01 02:57:55;;;;;;;31.20;12.93;;;;;;;;;;6155535;23;20172;-90
2023/03/01 03:01:09;;;;;;;25.67;12.13;;;;;;;;;;6154787;23;20169;-92
2023/03/01 03:04:17;;;;;;;28.77;12.37;;;;;;;;;;6174502;23;20168;-91
2023/03/01 03:07:25;;;;;;;30.20;12.27;;;;;;;;;;6155988;23;20243;-88
2023/03/01 03:10:34;;;;;;;29.03;12.43;;;;;;;;;;6172078;23;20164;-89
2023/03/01 03:13:47;;;;;;;27.77;12.40;;;;;;;;;;6156650;23;20605;-91
2023/03/01 03:16:55;;;;;;;25.40;11.90;;;;;;;;;;6157783;23;20221;-92
2023/03/01 03:20:01;;;;;;;28.90;11.73;;;;;;;;;;6154897;23;20169;-91
2023/03/01 03:23:06;;;;;;;30.43;13.77;;;;;;;;;;6174020;23;20194;-89
2023/03/01 03:26:14;;;;;;;30.93;12.57;;;;;;;;;;6156382;23;20201;-90
2023/03/01 03:29:20;;;;;;;28.93;12.83;;;;;;;;;;6155846;23;20175;-91
2023/03/01 03:32:27;;;;;;;27.00;13.00;;;;;;;;;;6157947;23;20240;-91
2023/03/01 03:35:34;;;;;;;31.17;12.93;;;;;;;;;;6157184;23;20619;-92
2023/03/01 03:38:40;;;;;;;32.37;12.53;;;;;;;;;;6156364;23;20152;-89
2023/03/01 03:41:46;;;;;;;29.60;12.47;;;;;;;;;;6172921;23;20172;-88
2023/03/01 03:44:51;;;;;;;31.80;14.20;;;;;;;;;;6158221;23;20149;-92
2023/03/01 03:47:58;;;;;;;30.33;13.57;;;;;;;;;;6175174;23;20515;-91
2023/03/01 03:51:05;;;;;;;28.27;12.80;;;;;;;;;;6159409;23;20221;-90
2023/03/01 03:54:11;;;;;;;33.90;13.87;;;;;;;;;;6157759;23;20224;-90
2023/03/01 03:57:16;;;;;;;29.87;13.33;;;;;;;;;;6154779;23;20197;-90
2023/03/01 04:00:38;;;;;;;28.73;12.43;;;;;;;;;;6154611;23;20172;-89
2023/03/01 04:03:46;;;;;;;31.43;13.43;;;;;;;;;;6156392;23;20172;-90
2023/03/01 04:06:51;;;;;;;34.57;14.20;;;;;;;;;;6170876;23;20164;-93
2023/03/01 04:09:57;;;;;;;29.80;13.20;;;;;;;;;;6155963;23;20156;-90
2023/03/01 04:13:03;;;;;;;28.00;13.67;;;;;;;;;;6172859;23;20169;-91
2023/03/01 04:16:08;;;;;;;36.37;13.47;;;;;;;;;;6156803;23;20299;-92
2023/03/01 04:19:22;;;;;;;31.50;14.00;;;;;;;;;;6174148;23;20625;-93
2023/03/01 04:22:29;;;;;;;27.33;12.30;;;;;;;;;;6154708;23;20189;-91
2023/03/01 04:25:34;;;;;;;34.03;13.93;;;;;;;;;;6172136;23;20218;-91
2023/03/01 04:28:42;;;;;;;31.23;13.23;;;;;;;;;;6154736;23;20203;-93
2023/03/01 04:31:50;;;;;;;36.90;14.43;;;;;;;;;;6172260;23;20230;-91
2023/03/01 04:34:57;;;;;;;35.77;14.03;;;;;;;;;;6154975;23;20172;-90
2023/03/01 04:38:03;;;;;;;33.73;13.80;;;;;;;;;;6153659;23;20172;-90
2023/03/01 04:41:10;;;;;;;33.77;14.37;;;;;;;;;;6155092;23;20161;-91
2023/03/01 04:44:15;;;;;;;33.97;13.67;;;;;;;;;;6173442;23;20169;-94
2023/03/01 04:47:21;;;;;;;31.27;13.43;;;;;;;;;;6154457;23;20251;-91
2023/03/01 04:50:28;;;;;;;38.03;14.20;;;;;;;;;;6156456;23;20196;-94
2023/03/01 04:53:35;;;;;;;29.13;13.20;;;;;;;;;;6154505;23;20164;-89
2023/03/01 04:56:41;;;;;;;40.87;16.90;;;;;;;;;;6170898;23;20157;-90
2023/03/01 04:59:46;;;;;;;30.20;14.07;;;;;;;;;;6152326;23;20285;-93
2023/03/01 05:02:56;;;;;;;34.33;13.50;;;;;;;;;;6168807;23;20608;-90
2023/03/01 05:06:02;;;;;;;32.70;14.13;;;;;;;;;;6153442;23;20209;-92
2023/03/01 05:09:07;;;;;;;30.27;13.50;;;;;;;;;;6152170;23;20192;-89
2023/03/01 05:12:13;;;;;;;36.33;14.83;;;;;;;;;;6152610;23;20197;-91
2023/03/01 05:15:19;;;;;;;35.90;14.20;;;;;;;;;;6169667;23;20172;-91
2023/03/01 05:18:25;;;;;;;28.53;12.73;;;;;;;;;;6152685;23;20176;-91
2023/03/01 05:22:01;;;;;;;31.10;13.30;;;;;;;;;;6154175;23;20188;-92
2023/03/01 05:24:59;;;;;;;35.30;13.83;;;;;;;;;;6156120;23;20219;-88
2023/03/01 05:28:05;;;;;;;29.83;13.50;;;;;;;;;;6171433;23;20192;-93
2023/03/01 05:31:10;;;;;;;32.87;13.20;;;;;;;;;;6155405;23;20244;-93
2023/03/01 05:34:15;;;;;;;35.17;14.33;;;;;;;;;;6154784;23;20168;-91
2023/03/01 05:37:22;;;;;;;36.50;14.83;;;;;;;;;;6156005;23;20164;-91
2023/03/01 05:40:29;;;;;;;33.07;13.80;;;;;;;;;;6171566;23;20176;-88
2023/03/01 05:43:34;;;;;;;35.17;14.47;;;;;;;;;;6156338;23;20203;-91
2023/03/01 05:46:41;;;;;;;36.97;15.40;;;;;;;;;;6173773;23;20172;-90
2023/03/01 05:49:52;;;;;;;38.10;13.97;;;;;;;;;;6156924;23;20169;-91
2023/03/01 05:53:04;;;;;;;34.43;14.23;;;;;;;;;;6171671;23;20164;-90
2023/03/01 05:56:10;;;;;;;31.70;14.47;;;;;;;;;;6153802;23;20189;-90
2023/03/01 05:59:16;;;;;;;38.17;14.80;;;;;;;;;;6172150;23;20171;-92
2023/03/01 06:02:46;;;;;;;34.73;14.03;;;;;;;;;;6154403;23;20298;-89
2023/03/01 06:05:51;;;;;;;36.43;14.73;;;;;;;;;;6172512;23;20237;-91
2023/03/01 06:08:58;;;;;;;35.23;14.47;;;;;;;;;;6171504;23;20200;-91
2023/03/01 06:12:03;;;;;;;35.23;14.47;;;;;;;;;;6153357;23;20171;-89
2023/03/01 06:15:18;;;;;;;37.23;15.63;;;;;;;;;;6171782;23;20263;-90
2023/03/01 06:18:23;;;;;;;44.47;15.67;;;;;;;;;;6154679;23;20172;-91
2023/03/01 06:21:30;;;;;;;34.87;15.17;;;;;;;;;;6156889;23;20152;-89
2023/03/01 06:24:43;;;;;;;34.67;15.57;;;;;;;;;;6157136;23;20169;-87
2023/03/01 06:27:50;;;;;;;36.13;15.67;;;;;;;;;;6155132;23;20217;-88
2023/03/01 06:30:55;;;;;;;36.93;13.73;;;;;;;;;;6155071;23;20192;-91
2023/03/01 06:34:00;;;;;;;39.87;15.73;;;;;;;;;;6153228;23;20175;-90
2023/03/01 06:37:05;;;;;;;38.10;15.00;;;;;;;;;;6155049;23;20228;-92
2023/03/01 06:40:14;;;;;;;36.67;15.00;;;;;;;;;;6171904;23;20177;-87
2023/03/01 06:43:19;;;;;;;34.97;15.00;;;;;;;;;;6156624;23;20172;-93
2023/03/01 06:46:25;;;;;;;35.43;15.10;;;;;;;;;;6172700;23;20224;-93
2023/03/01 06:49:30;;;;;;;40.50;14.70;;;;;;;;;;6154590;23;20192;-92
2023/03/01 06:52:43;;;;;;;35.03;15.13;;;;;;;;;;6172828;23;20164;-90
2023/03/01 06:55:55;;;;;;;34.90;14.63;;;;;;;;;;6153971;23;20176;-89
2023/03/01 06:59:04;;;;;;;38.90;15.93;;;;;;;;;;6155506;23;20192;-89
2023/03/01 07:02:52;;;;;;;42.87;16.67;;;;;;;;;;6157437;23;20152;-91
2023/03/01 07:05:58;;;;;;;38.77;15.00;;;;;;;;;;6154255;23;20216;-88
2023/03/01 07:09:03;;;;;;;33.87;14.47;;;;;;;;;;6170128;23;20196;-88
2023/03/01 07:12:10;;;;;;;37.07;14.93;;;;;;;;;;6154097;23;20168;-91
2023/03/01 07:15:16;;;;;;;42.03;16.47;;;;;;;;;;6154453;23;20220;-91
2023/03/01 07:18:21;;;;;;;40.17;15.43;;;;;;;;;;6153804;23;20173;-90
2023/03/01 07:21:28;;;;;;;36.87;15.03;;;;;;;;;;6153683;23;20212;-90
2023/03/01 07:24:35;;;;;;;37.10;14.47;;;;;;;;;;6151977;23;20212;-89
2023/03/01 07:27:42;;;;;;;36.80;15.87;;;;;;;;;;6154629;23;20177;-91
2023/03/01 07:30:47;;;;;;;37.17;15.47;;;;;;;;;;6155800;23;20152;-90
2023/03/01 07:33:53;;;;;;;36.30;15.27;;;;;;;;;;6154490;23;20176;-90
2023/03/01 07:36:59;;;;;;;44.87;17.47;;;;;;;;;;6152962;23;20168;-89
2023/03/01 07:40:07;;;;;;;43.27;16.77;;;;;;;;;;6173221;23;20200;-90
2023/03/01 07:43:14;;;;;;;36.00;15.07;;;;;;;;;;6155789;23;20173;-92
2023/03/01 07:46:19;;;;;;;41.43;16.70;;;;;;;;;;6171739;23;20211;-91
2023/03/01 07:49:27;;;;;;;40.23;16.27;;;;;;;;;;6154131;23;20195;-90
2023/03/01 07:52:32;;;;;;;37.60;16.17;;;;;;;;;;6152756;23;20216;-91
2023/03/01 07:55:38;;;;;;;42.60;15.67;;;;;;;;;;6154254;23;20173;-92
2023/03/01 07:58:45;;;;;;;34.63;15.23;;;;;;;;;;6154804;23;20174;-90
2023/03/01 08:05:43;;;;;;;38.20;13.33;;;;;;;;;;6155748;23;20569;-90
2023/03/01 08:08:48;;;;;;;49.67;16.10;;;;;;;;;;6153818;23;20261;-92
2023/03/01 08:11:54;;;;;;;35.53;15.37;;;;;;;;;;6154560;23;20602;-93
2023/03/01 08:15:01;;;;;;;41.53;14.47;;;;;;;;;;6156354;23;20201;-91
2023/03/01 08:18:07;;;;;;;44.77;16.33;;;;;;;;;;6156309;23;20218;-92
2023/03/01 08:21:19;;;;;;;35.03;13.10;;;;;;;;;;6155237;23;20168;-89
2023/03/01 08:24:26;;;;;;;31.17;13.20;;;;;;;;;;6154750;23;20172;-90
2023/03/01 08:27:33;;;;;;;29.93;12.10;;;;;;;;;;6173605;23;20216;-89
2023/03/01 08:30:40;;;;;;;34.37;13.07;;;;;;;;;;6157924;23;20161;-89
2023/03/01 08:33:50;;;;;;;35.63;13.93;;;;;;;;;;6172940;23;20177;-90
2023/03/01 08:36:55;;;;;;;30.67;12.97;;;;;;;;;;6154155;23;20181;-90
2023/03/01 08:40:01;;;;;;;31.13;12.60;;;;;;;;;;6154633;23;20216;-94
2023/03/01 08:43:08;;;;;;;30.63;12.03;;;;;;;;;;6154987;23;20219;-89
2023/03/01 08:46:15;;;;;;;30.20;13.73;;;;;;;;;;6155874;23;20197;-89
2023/03/01 08:49:21;;;;;;;32.23;13.47;;;;;;;;;;6157390;23;20248;-93
2023/03/01 08:52:27;;;;;;;28.07;11.60;;;;;;;;;;6158583;23;20197;-89
2023/03/01 08:55:37;;;;;;;30.87;10.80;;;;;;;;;;6160315;23;20156;-94
2023/03/01 08:58:46;;;;;;;29.20;12.20;;;;;;;;;;6162056;23;20157;-92
